createdAt,value
2022-08-28T00:01:01.499Z,19.00
2022-08-28T00:03:29.083Z,19.00
2022-08-28T00:05:57.546Z,18.90
2022-08-28T00:08:24.896Z,18.90
2022-08-28T00:10:52.282Z,19.00
2022-08-28T00:13:21.558Z,19.00
2022-08-28T00:15:51.789Z,19.00
2022-08-28T00:18:18.892Z,19.00
2022-08-28T00:20:46.644Z,18.90
2022-08-28T00:23:14.073Z,18.90
2022-08-28T00:25:41.048Z,18.90
2022-08-28T00:28:10.763Z,18.90
2022-08-28T00:30:51.306Z,18.90
2022-08-28T00:33:27.356Z,19.00
2022-08-28T00:35:55.167Z,19.10
2022-08-28T00:38:23.065Z,19.10
2022-08-28T00:40:56.498Z,19.10
2022-08-28T00:43:44.761Z,19.10
2022-08-28T00:46:19.747Z,19.00
2022-08-28T00:48:47.253Z,19.00
2022-08-28T00:51:36.131Z,19.00
2022-08-28T00:54:07.525Z,19.00
2022-08-28T00:56:36.099Z,19.00
2022-08-28T00:59:09.095Z,19.00
2022-08-28T01:01:36.402Z,18.90
2022-08-28T01:04:06.283Z,18.90
2022-08-28T01:06:35.867Z,19.00
2022-08-28T01:09:04.234Z,18.90
2022-08-28T01:11:32.506Z,18.80
2022-08-28T01:14:03.087Z,18.70
2022-08-28T01:16:33.796Z,18.80
2022-08-28T01:19:03.682Z,18.80
2022-08-28T01:21:45.211Z,18.80
2022-08-28T01:24:16.314Z,18.70
2022-08-28T01:26:43.943Z,18.70
2022-08-28T01:29:11.940Z,18.60
2022-08-28T01:31:41.036Z,18.50
2022-08-28T01:34:09.897Z,18.50
2022-08-28T01:36:37.655Z,18.50
2022-08-28T01:39:10.133Z,18.30
2022-08-28T01:41:46.900Z,18.30
2022-08-28T01:44:17.934Z,18.30
2022-08-28T01:46:45.885Z,18.40
2022-08-28T01:49:14.044Z,18.40
2022-08-28T01:51:41.799Z,18.40
2022-08-28T01:54:10.247Z,18.30
2022-08-28T01:56:41.740Z,18.30
2022-08-28T01:59:11.027Z,18.20
2022-08-28T02:01:38.731Z,18.30
2022-08-28T02:04:06.696Z,18.30
2022-08-28T02:06:34.271Z,18.30
2022-08-28T02:09:01.648Z,18.20
2022-08-28T02:11:30.736Z,18.20
2022-08-28T02:13:57.782Z,18.10
2022-08-28T02:16:26.391Z,18.10
2022-08-28T02:18:53.800Z,18.10
2022-08-28T02:21:20.987Z,18.10
2022-08-28T02:23:48.027Z,18.10
2022-08-28T02:26:15.355Z,18.00
2022-08-28T02:28:43.508Z,18.00
2022-08-28T02:31:11.322Z,18.00
2022-08-28T02:33:43.748Z,17.90
2022-08-28T02:36:13.153Z,17.90
2022-08-28T02:38:40.140Z,17.90
2022-08-28T02:41:07.499Z,17.90
2022-08-28T02:43:34.893Z,17.90
2022-08-28T02:46:03.029Z,17.80
2022-08-28T02:48:31.978Z,17.90
2022-08-28T02:51:00.773Z,17.80
2022-08-28T02:53:28.334Z,17.80
2022-08-28T02:55:55.480Z,17.80
2022-08-28T02:58:22.425Z,17.90
2022-08-28T03:00:49.855Z,17.90
2022-08-28T03:03:16.799Z,17.80
2022-08-28T03:05:45.082Z,17.90
2022-08-28T03:08:12.345Z,17.80
2022-08-28T03:10:39.555Z,17.70
2022-08-28T03:13:06.690Z,17.70
2022-08-28T03:15:33.712Z,17.70
2022-08-28T03:18:03.171Z,17.70
2022-08-28T03:20:35.277Z,17.70
2022-08-28T03:23:21.491Z,17.70
2022-08-28T03:25:48.612Z,17.70
2022-08-28T03:28:15.584Z,17.70
2022-08-28T03:30:42.585Z,17.70
2022-08-28T03:33:09.535Z,17.70
2022-08-28T03:35:37.693Z,17.70
2022-08-28T03:38:05.478Z,17.60
2022-08-28T03:40:32.547Z,17.70
2022-08-28T03:42:59.571Z,17.70
2022-08-28T03:45:26.567Z,17.70
2022-08-28T03:47:53.830Z,17.70
2022-08-28T03:50:21.047Z,17.70
2022-08-28T03:52:48.180Z,17.60
2022-08-28T03:55:15.392Z,17.60
2022-08-28T03:57:42.363Z,17.70
2022-08-28T04:00:12.446Z,17.70
2022-08-28T04:02:41.214Z,17.70
2022-08-28T04:05:09.566Z,17.70
2022-08-28T04:07:37.140Z,17.70
2022-08-28T04:10:05.471Z,17.70
2022-08-28T04:12:34.488Z,17.70
2022-08-28T04:15:02.667Z,17.70
2022-08-28T04:17:29.877Z,17.80
2022-08-28T04:19:56.998Z,17.70
2022-08-28T04:22:23.914Z,17.80
2022-08-28T04:24:50.835Z,17.90
2022-08-28T04:27:17.883Z,17.80
2022-08-28T04:29:44.798Z,17.90
2022-08-28T04:32:11.853Z,17.90
2022-08-28T04:34:39.260Z,17.80
2022-08-28T04:37:06.693Z,17.80
2022-08-28T04:39:34.126Z,17.80
2022-08-28T04:42:01.209Z,17.80
2022-08-28T04:44:28.304Z,17.80
2022-08-28T04:46:55.347Z,17.90
2022-08-28T04:49:25.976Z,18.10
2022-08-28T04:51:53.287Z,18.20
2022-08-28T04:54:21.166Z,18.30
2022-08-28T04:56:48.159Z,18.20
2022-08-28T04:59:17.550Z,18.30
2022-08-28T05:01:44.714Z,18.20
2022-08-28T05:04:12.841Z,18.20
2022-08-28T05:06:46.292Z,18.20
2022-08-28T05:09:18.819Z,18.10
2022-08-28T05:11:46.854Z,18.20
2022-08-28T05:14:16.205Z,18.20
2022-08-28T05:16:46.562Z,18.30
2022-08-28T05:19:14.813Z,18.30
2022-08-28T05:21:42.726Z,18.30
2022-08-28T05:24:10.239Z,18.40
2022-08-28T05:26:38.924Z,18.40
2022-08-28T05:29:08.491Z,18.40
2022-08-28T05:31:35.608Z,18.50
2022-08-28T05:34:04.733Z,18.40
2022-08-28T05:36:36.671Z,18.30
2022-08-28T05:39:07.670Z,18.30
2022-08-28T05:41:34.787Z,18.30
2022-08-28T05:44:08.465Z,18.30
2022-08-28T05:46:38.241Z,18.50
2022-08-28T05:49:09.596Z,18.50
2022-08-28T05:51:40.242Z,18.50
2022-08-28T05:54:07.357Z,18.60
2022-08-28T05:56:37.177Z,18.40
2022-08-28T05:59:06.024Z,18.40
2022-08-28T06:01:38.117Z,18.60
2022-08-28T06:04:09.567Z,18.50
2022-08-28T06:06:39.305Z,18.50
2022-08-28T06:09:13.201Z,18.60
2022-08-28T06:11:44.655Z,18.80
2022-08-28T06:14:16.271Z,18.70
2022-08-28T06:16:50.949Z,18.60
2022-08-28T06:19:19.500Z,18.60
2022-08-28T06:21:48.286Z,18.70
2022-08-28T06:24:15.354Z,18.80
2022-08-28T06:26:42.628Z,18.70
2022-08-28T06:29:12.726Z,18.80
2022-08-28T06:31:40.310Z,18.90
2022-08-28T06:34:09.151Z,18.80
2022-08-28T06:36:39.021Z,18.80
2022-08-28T06:39:06.876Z,18.70
2022-08-28T06:41:35.783Z,18.70
2022-08-28T06:44:02.914Z,18.70
2022-08-28T06:46:31.798Z,18.80
2022-08-28T06:48:58.915Z,18.90
2022-08-28T06:51:25.860Z,18.80
2022-08-28T06:53:52.886Z,18.90
2022-08-28T06:56:26.039Z,18.80
2022-08-28T06:58:55.034Z,18.90
2022-08-28T07:01:33.938Z,18.70
2022-08-28T07:04:05.402Z,18.70
2022-08-28T07:06:35.509Z,18.80
2022-08-28T07:09:05.275Z,18.80
2022-08-28T07:11:33.743Z,18.80
2022-08-28T07:14:01.653Z,18.90
2022-08-28T07:16:32.264Z,18.90
2022-08-28T07:19:00.131Z,18.70
2022-08-28T07:21:27.252Z,18.80
2022-08-28T07:23:55.416Z,18.70
2022-08-28T07:26:24.415Z,18.70
2022-08-28T07:28:53.559Z,18.70
2022-08-28T07:31:39.742Z,18.80
2022-08-28T07:34:06.880Z,18.80
2022-08-28T07:36:36.080Z,18.70
2022-08-28T07:39:03.711Z,18.80
2022-08-28T07:41:33.693Z,18.80
2022-08-28T07:44:19.471Z,18.70
2022-08-28T07:46:46.661Z,18.80
2022-08-28T07:49:17.202Z,18.70
2022-08-28T07:51:46.840Z,18.80
2022-08-28T07:54:17.658Z,18.70
2022-08-28T07:56:45.581Z,18.80
2022-08-28T07:59:13.950Z,18.70
2022-08-28T08:01:46.897Z,18.80
2022-08-28T08:04:16.359Z,18.90
2022-08-28T08:06:44.853Z,18.90
2022-08-28T08:09:14.742Z,18.90
2022-08-28T08:11:42.557Z,18.90
2022-08-28T08:14:10.057Z,18.80
2022-08-28T08:16:41.271Z,18.70
2022-08-28T08:19:10.495Z,18.70
2022-08-28T08:21:37.864Z,18.80
2022-08-28T08:24:05.178Z,18.90
2022-08-28T08:26:32.625Z,18.70
2022-08-28T08:29:00.320Z,19.00
2022-08-28T08:31:33.186Z,18.80
2022-08-28T08:34:02.774Z,18.80
2022-08-28T08:36:32.376Z,19.10
2022-08-28T08:39:00.673Z,19.10
2022-08-28T08:41:39.989Z,18.90
2022-08-28T08:44:35.716Z,18.90
2022-08-28T08:47:27.317Z,19.00
2022-08-28T08:49:54.220Z,18.90
2022-08-28T08:52:34.522Z,18.90
2022-08-28T08:55:16.948Z,18.80
2022-08-28T08:57:49.380Z,19.00
2022-08-28T09:00:18.689Z,19.10
2022-08-28T09:02:58.842Z,19.10
2022-08-28T09:05:57.977Z,18.80
2022-08-28T09:08:38.735Z,18.80
2022-08-28T09:11:31.743Z,18.90
2022-08-28T09:14:06.034Z,18.60
2022-08-28T09:16:37.966Z,18.50
2022-08-28T09:19:07.324Z,18.50
2022-08-28T09:21:38.982Z,18.50
2022-08-28T09:24:11.976Z,18.60
2022-08-28T09:26:40.588Z,18.40
2022-08-28T09:29:16.686Z,18.50
2022-08-28T09:31:44.604Z,18.50
2022-08-28T09:34:23.703Z,18.30
2022-08-28T09:36:52.597Z,18.30
2022-08-28T09:39:19.524Z,18.30
2022-08-28T09:42:11.209Z,18.30
2022-08-28T09:45:15.098Z,18.30
2022-08-28T09:47:51.144Z,18.30
2022-08-28T09:50:26.935Z,18.40
2022-08-28T09:53:00.105Z,18.40
2022-08-28T09:56:11.761Z,18.40
2022-08-28T09:59:16.340Z,18.30
2022-08-28T10:01:46.464Z,18.30
2022-08-28T10:04:17.142Z,18.30
2022-08-28T10:06:58.306Z,18.30
2022-08-28T10:09:39.464Z,18.40
2022-08-28T10:12:32.583Z,18.40
2022-08-28T10:15:17.487Z,18.10
2022-08-28T10:18:26.199Z,18.10
2022-08-28T10:21:10.085Z,18.10
2022-08-28T10:23:59.156Z,17.90
2022-08-28T10:26:53.260Z,17.90
2022-08-28T10:29:38.816Z,17.90
2022-08-28T10:32:14.799Z,18.00
2022-08-28T10:35:12.103Z,17.90
2022-08-28T10:38:01.926Z,17.80
2022-08-28T10:40:36.741Z,17.90
2022-08-28T10:43:25.079Z,17.80
2022-08-28T10:45:52.801Z,17.80
2022-08-28T10:48:40.735Z,17.70
2022-08-28T10:51:18.207Z,17.90
2022-08-28T10:53:55.102Z,17.80
2022-08-28T10:56:28.816Z,17.80
2022-08-28T10:59:01.833Z,17.70
2022-08-28T11:01:36.849Z,17.70
2022-08-28T11:04:10.215Z,17.70
2022-08-28T11:07:18.478Z,17.70
2022-08-28T11:09:48.930Z,17.90
2022-08-28T11:12:19.943Z,17.70
2022-08-28T11:14:51.361Z,17.70
2022-08-28T11:17:31.695Z,17.90
2022-08-28T11:20:20.807Z,17.90
2022-08-28T11:22:56.605Z,17.80
2022-08-28T11:25:33.109Z,17.70
2022-08-28T11:28:15.379Z,17.80
2022-08-28T11:30:45.913Z,17.70
2022-08-28T11:33:41.172Z,17.70
2022-08-28T11:36:20.209Z,17.50
2022-08-28T11:38:56.496Z,17.80
2022-08-28T11:41:27.572Z,17.60
2022-08-28T11:44:09.719Z,17.50
2022-08-28T11:46:48.160Z,17.50
2022-08-28T11:49:27.379Z,17.60
2022-08-28T11:52:31.879Z,17.60
2022-08-28T11:55:21.961Z,17.50
2022-08-28T12:00:35.933Z,17.60
2022-08-28T12:03:12.765Z,17.20
2022-08-28T12:05:52.554Z,17.30
2022-08-28T12:08:54.558Z,17.30
2022-08-28T12:11:40.118Z,17.60
2022-08-28T12:14:11.924Z,17.40
2022-08-28T12:17:08.865Z,17.30
2022-08-28T12:20:11.705Z,17.30
2022-08-28T12:22:47.901Z,17.50
2022-08-28T12:25:25.597Z,17.50
2022-08-28T12:27:54.209Z,17.30
2022-08-28T12:30:56.412Z,17.20
2022-08-28T12:33:27.338Z,16.90
2022-08-28T12:36:00.778Z,17.00
2022-08-28T12:38:31.302Z,17.10
2022-08-28T12:40:58.386Z,17.10
2022-08-28T12:43:41.734Z,16.90
2022-08-28T12:46:23.664Z,16.80
2022-08-28T12:48:58.797Z,16.80
2022-08-28T12:51:34.919Z,16.50
2022-08-28T12:54:08.464Z,16.30
2022-08-28T12:56:37.778Z,16.30
2022-08-28T12:59:32.748Z,16.20
2022-08-28T13:02:10.545Z,16.00
2022-08-28T13:04:44.506Z,15.90
2022-08-28T13:07:15.099Z,15.80
2022-08-28T13:09:49.184Z,15.60
2022-08-28T13:12:54.854Z,15.50
2022-08-28T13:15:42.403Z,15.60
2022-08-28T13:18:09.349Z,15.40
2022-08-28T13:20:38.045Z,15.30
2022-08-28T13:23:05.381Z,15.10
2022-08-28T13:25:36.072Z,15.10
2022-08-28T13:28:15.058Z,15.00
2022-08-28T13:30:42.039Z,14.90
2022-08-28T13:33:23.858Z,14.70
2022-08-28T13:35:52.322Z,14.70
2022-08-28T13:38:22.141Z,14.60
2022-08-28T13:40:59.509Z,14.40
2022-08-28T13:43:29.369Z,14.40
2022-08-28T13:45:58.926Z,14.20
2022-08-28T13:48:27.241Z,14.00
2022-08-28T13:51:10.845Z,14.00
2022-08-28T13:53:39.666Z,14.10
2022-08-28T13:56:07.194Z,14.00
2022-08-28T13:58:34.256Z,13.90
2022-08-28T14:01:02.181Z,13.90
2022-08-28T14:03:41.462Z,14.00
2022-08-28T14:06:14.543Z,13.90
2022-08-28T14:08:43.836Z,13.90
2022-08-28T14:11:12.725Z,13.90
2022-08-28T14:13:40.808Z,13.80
2022-08-28T14:16:16.943Z,13.80
2022-08-28T14:18:43.963Z,13.80
2022-08-28T14:21:10.922Z,13.90
2022-08-28T14:23:38.307Z,13.90
2022-08-28T14:26:05.870Z,13.80
2022-08-28T14:28:34.893Z,13.70
2022-08-28T14:31:08.149Z,13.70
2022-08-28T14:33:38.959Z,13.60
2022-08-28T14:36:14.111Z,13.40
2022-08-28T14:38:41.124Z,13.30
2022-08-28T14:41:09.087Z,13.40
2022-08-28T14:43:36.099Z,13.40
2022-08-28T14:46:03.085Z,13.30
2022-08-28T14:48:30.466Z,13.40
2022-08-28T14:50:57.770Z,13.20
2022-08-28T14:53:24.733Z,13.20
2022-08-28T14:55:51.836Z,13.30
2022-08-28T14:58:20.105Z,13.20
2022-08-28T15:00:49.769Z,13.30
2022-08-28T15:03:18.604Z,13.30
2022-08-28T15:05:46.478Z,13.40
2022-08-28T15:08:15.910Z,13.30
2022-08-28T15:10:43.864Z,13.30
2022-08-28T15:13:11.666Z,13.30
2022-08-28T15:15:41.351Z,13.30
2022-08-28T15:18:10.355Z,13.20
2022-08-28T15:20:42.479Z,13.30
2022-08-28T15:23:10.153Z,13.20
2022-08-28T15:25:37.266Z,13.20
2022-08-28T15:28:04.959Z,13.20
2022-08-28T15:30:32.072Z,13.20
2022-08-28T15:32:59.051Z,13.20
2022-08-28T15:35:26.039Z,13.20
2022-08-28T15:37:53.669Z,13.30
2022-08-28T15:40:40.142Z,13.20
2022-08-28T15:43:07.228Z,13.40
2022-08-28T15:45:38.047Z,13.40
2022-08-28T15:48:05.430Z,13.40
2022-08-28T15:50:32.648Z,13.50
2022-08-28T15:52:59.691Z,13.40
2022-08-28T15:55:27.613Z,13.40
2022-08-28T15:57:55.268Z,13.50
2022-08-28T16:00:22.490Z,13.50
2022-08-28T16:02:49.570Z,13.40
2022-08-28T16:05:16.700Z,13.40
2022-08-28T16:07:43.718Z,13.20
2022-08-28T16:10:13.615Z,13.40
2022-08-28T16:12:41.102Z,13.50
2022-08-28T16:15:09.108Z,13.40
2022-08-28T16:17:36.285Z,13.30
2022-08-28T16:20:06.870Z,13.10
2022-08-28T16:22:40.253Z,13.00
2022-08-28T16:25:08.303Z,13.00
2022-08-28T16:27:35.152Z,13.00
2022-08-28T16:30:03.510Z,13.10
2022-08-28T16:32:30.569Z,13.20
2022-08-28T16:34:58.450Z,13.20
2022-08-28T16:37:26.172Z,13.20
2022-08-28T16:40:08.962Z,13.10
2022-08-28T16:42:36.220Z,13.10
2022-08-28T16:45:04.623Z,13.20
2022-08-28T16:47:33.271Z,13.00
2022-08-28T16:50:01.956Z,13.10
2022-08-28T16:52:28.913Z,13.00
2022-08-28T16:54:55.966Z,13.10
2022-08-28T16:57:24.028Z,13.00
2022-08-28T16:59:53.187Z,13.00
2022-08-28T17:02:26.506Z,13.00
2022-08-28T17:04:55.549Z,13.00
2022-08-28T17:07:22.962Z,12.90
2022-08-28T17:09:50.204Z,13.00
2022-08-28T17:12:18.629Z,12.90
2022-08-28T17:14:45.821Z,13.00
2022-08-28T17:17:12.803Z,12.80
2022-08-28T17:19:40.251Z,12.90
2022-08-28T17:22:27.163Z,12.60
2022-08-28T17:24:54.858Z,12.70
2022-08-28T17:27:22.766Z,12.70
2022-08-28T17:29:50.856Z,12.60
2022-08-28T17:32:17.904Z,12.60
2022-08-28T17:34:45.065Z,12.60
2022-08-28T17:37:13.241Z,12.60
2022-08-28T17:39:40.140Z,12.50
2022-08-28T17:42:07.189Z,12.40
2022-08-28T17:44:35.694Z,12.40
2022-08-28T17:47:02.934Z,12.40
2022-08-28T17:49:29.976Z,12.30
2022-08-28T17:51:57.341Z,12.50
2022-08-28T17:54:24.975Z,12.40
2022-08-28T17:56:54.482Z,12.30
2022-08-28T17:59:25.155Z,12.30
2022-08-28T18:01:52.871Z,12.20
2022-08-28T18:04:24.229Z,12.20
2022-08-28T18:06:54.467Z,12.10
2022-08-28T18:09:22.865Z,12.10
2022-08-28T18:11:49.944Z,12.20
2022-08-28T18:14:17.392Z,12.20
2022-08-28T18:16:45.050Z,12.10
2022-08-28T18:19:13.729Z,12.10
2022-08-28T18:21:41.312Z,12.10
2022-08-28T18:24:10.208Z,12.10
2022-08-28T18:26:37.259Z,12.10
2022-08-28T18:29:04.431Z,12.10
2022-08-28T18:31:31.418Z,12.00
2022-08-28T18:33:58.591Z,12.10
2022-08-28T18:36:26.013Z,12.00
2022-08-28T18:38:53.954Z,12.00
2022-08-28T18:41:21.409Z,12.00
2022-08-28T18:43:57.678Z,12.00
2022-08-28T18:46:31.105Z,12.00
2022-08-28T18:48:59.477Z,12.00
2022-08-28T18:51:27.002Z,12.00
2022-08-28T18:53:55.313Z,11.80
2022-08-28T18:56:22.467Z,11.80
2022-08-28T18:58:51.502Z,11.90
2022-08-28T19:01:18.837Z,11.90
2022-08-28T19:03:46.296Z,11.90
2022-08-28T19:06:15.216Z,11.90
2022-08-28T19:08:42.768Z,11.90
2022-08-28T19:11:12.477Z,12.00
2022-08-28T19:13:41.536Z,11.90
2022-08-28T19:16:09.488Z,11.80
2022-08-28T19:18:36.900Z,11.80
2022-08-28T19:21:09.239Z,11.80
2022-08-28T19:23:37.658Z,11.90
2022-08-28T19:26:06.968Z,11.90
2022-08-28T19:28:35.581Z,11.80
2022-08-28T19:31:06.370Z,11.90
2022-08-28T19:33:33.537Z,12.10
2022-08-28T19:36:01.315Z,12.00
2022-08-28T19:38:30.858Z,12.00
2022-08-28T19:40:58.057Z,12.10
2022-08-28T19:43:25.139Z,12.10
2022-08-28T19:46:18.384Z,12.10
2022-08-28T19:48:47.781Z,12.20
2022-08-28T19:51:22.450Z,12.20
2022-08-28T19:53:56.840Z,12.30
2022-08-28T19:56:27.386Z,12.20
2022-08-28T19:58:56.625Z,12.30
2022-08-28T20:01:23.929Z,12.40
2022-08-28T20:03:51.102Z,12.50
2022-08-28T20:06:21.262Z,12.40
2022-08-28T20:08:48.453Z,12.50
2022-08-28T20:11:25.598Z,12.50
2022-08-28T20:14:00.040Z,12.60
2022-08-28T20:16:28.188Z,12.50
2022-08-28T20:18:56.114Z,12.50
2022-08-28T20:21:28.888Z,12.60
2022-08-28T20:24:09.576Z,12.50
2022-08-28T20:26:36.699Z,12.50
2022-08-28T20:29:06.097Z,12.60
2022-08-28T20:31:33.893Z,12.50
2022-08-28T20:34:01.081Z,12.60
2022-08-28T20:36:28.051Z,12.70
2022-08-28T20:38:55.393Z,12.60
2022-08-28T20:41:22.866Z,12.70
2022-08-28T20:43:50.225Z,12.70
2022-08-28T20:46:17.812Z,12.70
2022-08-28T20:48:45.337Z,12.70
2022-08-28T20:51:12.670Z,12.80
2022-08-28T20:53:39.965Z,12.80
2022-08-28T20:56:09.475Z,12.80
2022-08-28T20:58:37.712Z,12.80
2022-08-28T21:01:05.851Z,12.80
2022-08-28T21:03:33.126Z,12.70
2022-08-28T21:06:00.227Z,12.70
2022-08-28T21:08:27.268Z,12.80
2022-08-28T21:10:54.353Z,12.80
2022-08-28T21:13:21.793Z,12.70
2022-08-28T21:15:49.256Z,12.70
2022-08-28T21:18:16.620Z,12.80
2022-08-28T21:20:44.521Z,12.70
2022-08-28T21:23:11.655Z,12.70
2022-08-28T21:25:41.586Z,12.70
2022-08-28T21:28:08.956Z,12.80
2022-08-28T21:30:36.238Z,12.80
2022-08-28T21:33:03.271Z,12.80
2022-08-28T21:35:30.401Z,12.70
2022-08-28T21:37:57.660Z,12.80
2022-08-28T21:40:24.783Z,12.90
2022-08-28T21:42:51.932Z,12.80
2022-08-28T21:45:19.229Z,12.90
2022-08-28T21:47:46.362Z,12.90
2022-08-28T21:50:13.488Z,13.00
2022-08-28T21:52:40.822Z,12.80
2022-08-28T21:55:11.669Z,12.80
2022-08-28T21:57:39.161Z,12.90
2022-08-28T22:00:29.240Z,12.90
2022-08-28T22:02:56.296Z,12.90
2022-08-28T22:05:23.375Z,12.80
2022-08-28T22:07:50.390Z,12.90
2022-08-28T22:10:17.867Z,12.80
2022-08-28T22:12:44.812Z,12.80
2022-08-28T22:15:12.362Z,12.90
2022-08-28T22:17:39.558Z,12.90
2022-08-28T22:20:06.871Z,12.90
2022-08-28T22:22:52.717Z,12.90
2022-08-28T22:25:19.933Z,12.80
2022-08-28T22:27:47.295Z,12.90
2022-08-28T22:30:14.888Z,12.80
2022-08-28T22:32:43.617Z,12.80
2022-08-28T22:35:11.047Z,12.90
2022-08-28T22:37:40.362Z,13.00
2022-08-28T22:40:12.200Z,12.90
2022-08-28T22:42:40.885Z,12.90
2022-08-28T22:45:09.654Z,12.90
2022-08-28T22:47:36.893Z,13.00
2022-08-28T22:50:05.161Z,12.90
2022-08-28T22:52:32.977Z,13.00
2022-08-28T22:54:59.918Z,12.90
2022-08-28T22:57:27.474Z,13.00
2022-08-28T22:59:56.217Z,13.00
2022-08-28T23:02:27.324Z,12.90
2022-08-28T23:04:54.933Z,13.00
2022-08-28T23:07:22.069Z,13.00
2022-08-28T23:09:49.364Z,13.10
2022-08-28T23:12:16.699Z,13.10
2022-08-28T23:14:48.216Z,13.00
2022-08-28T23:17:17.029Z,13.00
2022-08-28T23:19:46.424Z,13.10
2022-08-28T23:22:14.454Z,13.00
2022-08-28T23:24:41.743Z,13.10
2022-08-28T23:27:34.295Z,13.00
2022-08-28T23:29:56.825Z,13.10
2022-08-28T23:32:23.773Z,13.10
2022-08-28T23:34:50.832Z,13.00
2022-08-28T23:37:17.868Z,13.10
2022-08-28T23:39:45.199Z,13.10
2022-08-28T23:42:13.007Z,13.00
2022-08-28T23:44:39.954Z,13.10
2022-08-28T23:47:07.200Z,13.00
2022-08-28T23:49:34.629Z,13.10
2022-08-28T23:52:09.928Z,13.10
2022-08-28T23:54:37.093Z,13.10
2022-08-28T23:57:05.407Z,13.00
2022-08-28T23:59:32.796Z,13.10
